Time;durP1;ratioP1;P1;durP2;ratioP2;P2;SDS_P1;SDS_P2;PMS_P1;PMS_P2;Temp;Humidity;BMP_temperature;BMP_pressure;BME280_temperature;BME280_humidity;BME280_pressure;Samples;Min_cycle;Max_cycle;Signal;HPM_P1;HPM_P2
2022/07/27 00:00:45;;;;;;;8.35;1.65;;;;;;;;;;5082602;27;93757;-61
2022/07/27 00:03:11;;;;;;;14.20;1.83;;;;;;;;;;5091922;27;92481;-62
2022/07/27 00:05:38;;;;;;;14.82;1.48;;;;;;;;;;5092828;27;93450;-62
2022/07/27 00:08:05;;;;;;;21.17;1.75;;;;;;;;;;5093128;27;94445;-63
2022/07/27 00:10:35;;;;;;;11.75;1.33;;;;;;;;;;5077499;27;93287;-63
2022/07/27 00:13:02;;;;;;;8.48;1.23;;;;;;;;;;5077136;27;92797;-62
2022/07/27 00:15:28;;;;;;;10.32;1.50;;;;;;;;;;5075500;27;92566;-63
2022/07/27 00:17:57;;;;;;;8.98;1.50;;;;;;;;;;5076412;27;94385;-62
2022/07/27 00:20:23;;;;;;;8.18;1.38;;;;;;;;;;5057307;27;96897;-63
2022/07/27 00:22:53;;;;;;;14.20;1.20;;;;;;;;;;5093620;27;92686;-62
2022/07/27 00:25:20;;;;;;;7.20;1.05;;;;;;;;;;5079213;27;93514;-62
2022/07/27 00:27:47;;;;;;;8.80;1.38;;;;;;;;;;5075945;27;92653;-62
2022/07/27 00:30:13;;;;;;;4.70;1.30;;;;;;;;;;5077911;27;93221;-62
2022/07/27 00:32:40;;;;;;;5.90;1.10;;;;;;;;;;5080082;27;94461;-62
2022/07/27 00:35:06;;;;;;;4.88;1.00;;;;;;;;;;5084637;27;93232;-62
2022/07/27 00:37:33;;;;;;;9.55;1.45;;;;;;;;;;5080357;27;93533;-62
2022/07/27 00:39:59;;;;;;;3.58;1.10;;;;;;;;;;5078047;27;93438;-62
2022/07/27 00:42:26;;;;;;;3.92;1.17;;;;;;;;;;5095718;27;92440;-61
2022/07/27 00:44:54;;;;;;;3.33;0.90;;;;;;;;;;5087575;27;94812;-62
2022/07/27 00:47:21;;;;;;;2.85;0.95;;;;;;;;;;5087318;27;93918;-62
2022/07/27 00:49:47;;;;;;;8.63;1.00;;;;;;;;;;5077016;27;93940;-61
2022/07/27 00:52:14;;;;;;;5.13;1.25;;;;;;;;;;5057456;27;93142;-62
2022/07/27 00:54:41;;;;;;;4.35;1.13;;;;;;;;;;5076057;27;92477;-62
2022/07/27 00:57:11;;;;;;;4.90;0.90;;;;;;;;;;5075343;27;93178;-61
2022/07/27 00:59:38;;;;;;;5.60;0.90;;;;;;;;;;5078967;27;93300;-61
2022/07/27 01:02:05;;;;;;;4.43;1.08;;;;;;;;;;5067313;27;91727;-61
2022/07/27 01:04:37;;;;;;;5.80;1.02;;;;;;;;;;5086134;27;92770;-61
2022/07/27 01:07:04;;;;;;;3.20;0.98;;;;;;;;;;5080067;27;93412;-61
2022/07/27 01:12:17;;;;;;;3.45;1.13;;;;;;;;;;5075607;27;94819;-61
2022/07/27 01:14:44;;;;;;;7.45;1.00;;;;;;;;;;5075838;27;92372;-63
2022/07/27 01:17:10;;;;;;;4.55;1.13;;;;;;;;;;5079884;27;93354;-63
2022/07/27 01:19:36;;;;;;;4.55;1.00;;;;;;;;;;5090482;27;93461;-63
2022/07/27 01:22:06;;;;;;;7.72;1.38;;;;;;;;;;5091160;27;92621;-63
2022/07/27 01:24:32;;;;;;;3.90;0.90;;;;;;;;;;5096233;27;93160;-63
2022/07/27 01:27:00;;;;;;;3.63;1.33;;;;;;;;;;5093495;27;93028;-63
2022/07/27 01:29:27;;;;;;;4.40;0.80;;;;;;;;;;5079714;27;92498;-61
2022/07/27 01:31:53;;;;;;;2.53;0.80;;;;;;;;;;5078149;27;93201;-61
2022/07/27 01:34:20;;;;;;;3.55;0.70;;;;;;;;;;5074449;27;95841;-62
2022/07/27 01:36:47;;;;;;;6.45;1.00;;;;;;;;;;5087631;27;95354;-63
2022/07/27 01:39:14;;;;;;;5.13;0.90;;;;;;;;;;5084303;27;93493;-63
2022/07/27 01:41:41;;;;;;;4.13;0.80;;;;;;;;;;5075613;27;92545;-63
2022/07/27 01:44:07;;;;;;;3.50;0.85;;;;;;;;;;5075714;27;92376;-61
2022/07/27 01:46:33;;;;;;;3.03;1.08;;;;;;;;;;5085029;27;93252;-61
2022/07/27 01:49:00;;;;;;;2.05;1.02;;;;;;;;;;5075279;27;92522;-61
2022/07/27 01:51:27;;;;;;;2.38;0.80;;;;;;;;;;5078785;27;93502;-61
2022/07/27 01:53:53;;;;;;;5.50;0.82;;;;;;;;;;5075789;27;92450;-61
2022/07/27 01:56:19;;;;;;;5.22;1.20;;;;;;;;;;5074827;27;92983;-61
2022/07/27 01:58:45;;;;;;;8.50;0.95;;;;;;;;;;5075895;27;96130;-61
2022/07/27 02:01:12;;;;;;;4.82;1.10;;;;;;;;;;5082413;27;93103;-61
2022/07/27 02:03:38;;;;;;;2.03;0.70;;;;;;;;;;5073976;27;93205;-61
2022/07/27 02:06:04;;;;;;;4.80;0.82;;;;;;;;;;5079423;27;93468;-60
2022/07/27 02:08:31;;;;;;;4.38;1.10;;;;;;;;;;5076014;27;92378;-61
2022/07/27 02:13:43;;;;;;;2.35;0.60;;;;;;;;;;5092757;27;94894;-61
2022/07/27 02:16:09;;;;;;;5.00;1.00;;;;;;;;;;5083332;27;93133;-61
2022/07/27 02:18:43;;;;;;;1.98;0.70;;;;;;;;;;5074851;27;93386;-61
2022/07/27 02:21:09;;;;;;;2.35;0.80;;;;;;;;;;5074805;27;92499;-61
2022/07/27 02:23:36;;;;;;;4.53;0.85;;;;;;;;;;5072313;27;97187;-62
2022/07/27 02:26:03;;;;;;;4.28;1.25;;;;;;;;;;5075530;27;93528;-61
2022/07/27 02:28:29;;;;;;;2.38;0.68;;;;;;;;;;5089767;27;92469;-62
2022/07/27 02:30:56;;;;;;;3.63;1.10;;;;;;;;;;5074898;27;94418;-61
2022/07/27 02:33:22;;;;;;;7.38;0.68;;;;;;;;;;5095767;27;94506;-61
2022/07/27 02:35:49;;;;;;;5.18;0.82;;;;;;;;;;5081990;27;92831;-62
2022/07/27 02:38:15;;;;;;;2.67;1.08;;;;;;;;;;5082359;27;92612;-61
2022/07/27 02:40:41;;;;;;;3.80;0.82;;;;;;;;;;5066083;27;91955;-62
2022/07/27 02:43:08;;;;;;;9.70;1.30;;;;;;;;;;5074488;27;92723;-62
2022/07/27 02:45:34;;;;;;;6.32;1.38;;;;;;;;;;5084163;27;93026;-62
2022/07/27 02:48:01;;;;;;;7.57;0.70;;;;;;;;;;5087485;27;94859;-62
2022/07/27 02:50:27;;;;;;;12.68;1.20;;;;;;;;;;5079111;27;95599;-62
2022/07/27 02:52:53;;;;;;;7.22;1.40;;;;;;;;;;5084028;27;94181;-62
2022/07/27 02:55:20;;;;;;;5.25;0.88;;;;;;;;;;5092863;27;92488;-62
2022/07/27 02:57:46;;;;;;;8.73;1.02;;;;;;;;;;5097919;27;93170;-62
2022/07/27 03:00:13;;;;;;;1.75;0.70;;;;;;;;;;5091642;27;92471;-62
2022/07/27 03:02:39;;;;;;;9.35;1.08;;;;;;;;;;5091241;27;93445;-63
2022/07/27 03:05:08;;;;;;;9.00;1.42;;;;;;;;;;5073875;27;92595;-62
2022/07/27 03:07:35;;;;;;;3.50;0.93;;;;;;;;;;5081841;27;92482;-62
2022/07/27 03:10:02;;;;;;;2.42;1.02;;;;;;;;;;5081258;27;94275;-62
2022/07/27 03:12:28;;;;;;;2.33;0.90;;;;;;;;;;5077485;27;95972;-62
2022/07/27 03:14:55;;;;;;;3.78;0.88;;;;;;;;;;5085263;27;92975;-62
2022/07/27 03:17:22;;;;;;;4.70;0.95;;;;;;;;;;5077848;27;92936;-62
2022/07/27 03:19:48;;;;;;;5.03;0.90;;;;;;;;;;5086858;27;93748;-62
2022/07/27 03:22:15;;;;;;;1.85;0.90;;;;;;;;;;5083424;27;92945;-62
2022/07/27 03:24:41;;;;;;;3.92;0.70;;;;;;;;;;5081258;27;93836;-61
2022/07/27 03:27:07;;;;;;;2.65;1.10;;;;;;;;;;5059910;27;92412;-62
2022/07/27 03:29:34;;;;;;;3.55;0.90;;;;;;;;;;5078113;27;93229;-62
2022/07/27 03:32:00;;;;;;;3.25;0.80;;;;;;;;;;5084229;27;93217;-62
2022/07/27 03:34:26;;;;;;;4.00;0.90;;;;;;;;;;5092042;27;92417;-62
2022/07/27 03:36:52;;;;;;;2.65;0.50;;;;;;;;;;5094397;27;94828;-62
2022/07/27 03:39:19;;;;;;;2.50;0.80;;;;;;;;;;5097647;27;93458;-62
2022/07/27 03:41:45;;;;;;;2.75;0.70;;;;;;;;;;5101116;27;92434;-64
2022/07/27 03:44:11;;;;;;;3.03;0.77;;;;;;;;;;5093696;27;93474;-63
2022/07/27 03:46:38;;;;;;;2.85;0.90;;;;;;;;;;5082996;27;93142;-64
2022/07/27 03:49:04;;;;;;;4.15;0.80;;;;;;;;;;5097468;27;93173;-62
2022/07/27 03:51:40;;;;;;;2.88;0.70;;;;;;;;;;5087020;27;93720;-62
2022/07/27 03:54:07;;;;;;;4.20;0.82;;;;;;;;;;5093971;27;93135;-61
2022/07/27 03:56:33;;;;;;;2.72;0.80;;;;;;;;;;5081490;27;92575;-62
2022/07/27 03:58:59;;;;;;;5.10;1.02;;;;;;;;;;5077419;27;93358;-61
2022/07/27 04:01:25;;;;;;;12.60;1.65;;;;;;;;;;5081127;27;94929;-60
2022/07/27 04:03:52;;;;;;;4.22;0.98;;;;;;;;;;5076379;27;93437;-64
2022/07/27 04:06:18;;;;;;;6.07;0.90;;;;;;;;;;5076884;27;92420;-62
2022/07/27 04:08:45;;;;;;;3.25;1.00;;;;;;;;;;5076168;27;93216;-62
2022/07/27 04:11:13;;;;;;;6.88;1.00;;;;;;;;;;5089849;27;93422;-62
2022/07/27 04:13:42;;;;;;;7.05;1.00;;;;;;;;;;5096491;27;92697;-61
2022/07/27 04:16:11;;;;;;;5.97;1.40;;;;;;;;;;5083753;27;94089;-64
2022/07/27 04:18:37;;;;;;;6.80;1.17;;;;;;;;;;5092332;27;92735;-64
2022/07/27 04:21:05;;;;;;;8.30;1.02;;;;;;;;;;5097162;27;92432;-64
2022/07/27 04:23:31;;;;;;;14.68;2.22;;;;;;;;;;5086719;27;93347;-64
2022/07/27 04:26:03;;;;;;;7.07;1.38;;;;;;;;;;5090067;27;94886;-64
2022/07/27 04:28:31;;;;;;;11.20;1.52;;;;;;;;;;5081737;27;95770;-64
2022/07/27 04:30:57;;;;;;;7.72;1.30;;;;;;;;;;5084146;27;93645;-64
2022/07/27 04:33:24;;;;;;;4.80;0.90;;;;;;;;;;5094678;27;92403;-65
2022/07/27 04:35:50;;;;;;;5.75;1.08;;;;;;;;;;5076571;27;94520;-64
2022/07/27 04:38:16;;;;;;;4.53;1.02;;;;;;;;;;5096405;27;93464;-64
2022/07/27 04:40:43;;;;;;;3.08;1.02;;;;;;;;;;5079295;27;92623;-64
2022/07/27 04:43:09;;;;;;;8.38;1.08;;;;;;;;;;5076602;27;94291;-65
2022/07/27 04:45:35;;;;;;;8.38;1.10;;;;;;;;;;5090864;27;93477;-64
2022/07/27 04:48:09;;;;;;;13.38;1.25;;;;;;;;;;5078842;27;93454;-66
2022/07/27 04:50:39;;;;;;;8.60;1.02;;;;;;;;;;5074477;27;95919;-64
2022/07/27 04:53:05;;;;;;;3.25;0.68;;;;;;;;;;5090508;27;92509;-63
2022/07/27 04:55:31;;;;;;;6.25;1.00;;;;;;;;;;5090524;27;94256;-64
2022/07/27 04:57:58;;;;;;;4.88;0.88;;;;;;;;;;5087984;27;93408;-63
2022/07/27 05:00:24;;;;;;;6.72;1.25;;;;;;;;;;5076806;27;92453;-63
2022/07/27 05:02:50;;;;;;;3.63;1.02;;;;;;;;;;5075537;27;93152;-63
2022/07/27 05:05:17;;;;;;;8.55;1.02;;;;;;;;;;5075736;27;93484;-63
2022/07/27 05:07:43;;;;;;;2.25;0.68;;;;;;;;;;5097072;27;91673;-64
2022/07/27 05:10:10;;;;;;;4.30;1.17;;;;;;;;;;5092626;27;93500;-63
2022/07/27 05:12:40;;;;;;;5.75;1.15;;;;;;;;;;5078004;27;92445;-63
2022/07/27 05:15:07;;;;;;;3.78;0.90;;;;;;;;;;5075137;27;94810;-64
2022/07/27 05:17:33;;;;;;;1.48;1.00;;;;;;;;;;5077742;27;93563;-64
2022/07/27 05:20:00;;;;;;;7.65;1.30;;;;;;;;;;5089041;27;92456;-63
2022/07/27 05:22:26;;;;;;;4.95;1.10;;;;;;;;;;5079878;27;93064;-61
2022/07/27 05:24:52;;;;;;;8.30;0.98;;;;;;;;;;5084551;27;93774;-60
2022/07/27 05:27:19;;;;;;;3.05;1.13;;;;;;;;;;5093168;27;92403;-60
2022/07/27 05:29:45;;;;;;;1.92;0.77;;;;;;;;;;5097382;27;93165;-61
2022/07/27 05:32:11;;;;;;;1.77;0.98;;;;;;;;;;5078403;27;91799;-60
2022/07/27 05:34:37;;;;;;;2.17;1.02;;;;;;;;;;5064076;27;92714;-60
2022/07/27 05:37:04;;;;;;;3.38;0.63;;;;;;;;;;5078811;27;93837;-60
2022/07/27 05:39:30;;;;;;;1.92;0.90;;;;;;;;;;5078918;27;94927;-60
2022/07/27 05:41:56;;;;;;;1.85;0.73;;;;;;;;;;5080434;27;95516;-60
2022/07/27 05:44:23;;;;;;;1.38;0.68;;;;;;;;;;5084360;27;93604;-60
2022/07/27 05:46:49;;;;;;;2.03;0.65;;;;;;;;;;5084195;27;92401;-60
2022/07/27 05:49:16;;;;;;;1.65;0.70;;;;;;;;;;5087331;27;93206;-59
2022/07/27 05:51:42;;;;;;;1.92;0.80;;;;;;;;;;5080941;27;93768;-60
2022/07/27 05:54:09;;;;;;;2.17;0.93;;;;;;;;;;5083294;27;94170;-60
2022/07/27 05:56:37;;;;;;;1.85;0.75;;;;;;;;;;5076154;27;92663;-61
2022/07/27 05:59:04;;;;;;;1.58;0.80;;;;;;;;;;5077811;27;92391;-60
2022/07/27 06:01:32;;;;;;;3.65;0.70;;;;;;;;;;5076864;27;94134;-62
2022/07/27 06:03:59;;;;;;;3.67;1.02;;;;;;;;;;5072401;27;95870;-62
2022/07/27 06:09:10;;;;;;;4.30;1.13;;;;;;;;;;5075906;27;93076;-62
2022/07/27 06:11:37;;;;;;;2.25;1.02;;;;;;;;;;5077407;27;94314;-62
2022/07/27 06:14:03;;;;;;;4.65;1.00;;;;;;;;;;5086124;27;94181;-62
2022/07/27 06:16:30;;;;;;;3.17;0.98;;;;;;;;;;5075704;27;93323;-62
2022/07/27 06:18:56;;;;;;;2.45;1.10;;;;;;;;;;5079354;27;94806;-63
2022/07/27 06:21:25;;;;;;;7.20;1.05;;;;;;;;;;5075554;27;94447;-62
2022/07/27 06:23:52;;;;;;;4.97;1.42;;;;;;;;;;5075906;27;94546;-62
2022/07/27 06:26:18;;;;;;;3.28;1.17;;;;;;;;;;5087797;27;92504;-62
2022/07/27 06:28:44;;;;;;;3.50;0.77;;;;;;;;;;5091295;27;94745;-63
2022/07/27 06:31:11;;;;;;;6.32;1.05;;;;;;;;;;5090276;27;93674;-62
2022/07/27 06:33:37;;;;;;;3.42;0.90;;;;;;;;;;5095638;27;92408;-62
2022/07/27 06:36:04;;;;;;;5.68;1.17;;;;;;;;;;5094207;27;93715;-62
2022/07/27 06:38:31;;;;;;;2.72;1.02;;;;;;;;;;5090178;27;92445;-62
2022/07/27 06:40:57;;;;;;;5.95;1.00;;;;;;;;;;5080161;27;93149;-61
2022/07/27 06:43:24;;;;;;;2.90;0.93;;;;;;;;;;5079488;27;93510;-61
2022/07/27 06:45:53;;;;;;;11.65;1.33;;;;;;;;;;5075211;27;91823;-61
2022/07/27 06:48:20;;;;;;;2.90;0.85;;;;;;;;;;5074707;27;92526;-61
2022/07/27 06:50:46;;;;;;;11.20;1.83;;;;;;;;;;5093369;27;93555;-61
2022/07/27 06:53:13;;;;;;;3.20;1.02;;;;;;;;;;5082455;27;94811;-61
2022/07/27 06:55:45;;;;;;;2.30;0.88;;;;;;;;;;5096023;27;95748;-61
2022/07/27 06:58:12;;;;;;;2.72;0.95;;;;;;;;;;5097902;27;92557;-61
2022/07/27 07:00:39;;;;;;;3.60;1.13;;;;;;;;;;5087678;27;93298;-62
2022/07/27 07:03:06;;;;;;;3.33;1.15;;;;;;;;;;5078052;27;93377;-62
2022/07/27 07:05:39;;;;;;;2.10;0.90;;;;;;;;;;5096541;27;92360;-61
2022/07/27 07:08:10;;;;;;;3.65;1.27;;;;;;;;;;5093132;27;94112;-61
2022/07/27 07:10:37;;;;;;;1.88;0.80;;;;;;;;;;5083115;27;93710;-62
2022/07/27 07:13:05;;;;;;;2.40;0.80;;;;;;;;;;5093445;27;92562;-62
2022/07/27 07:15:31;;;;;;;4.93;1.23;;;;;;;;;;5078434;27;93378;-61
2022/07/27 07:17:57;;;;;;;3.67;0.98;;;;;;;;;;5078916;27;96135;-61
2022/07/27 07:20:24;;;;;;;3.85;1.00;;;;;;;;;;5077617;27;95576;-63
2022/07/27 07:22:50;;;;;;;4.85;1.10;;;;;;;;;;5080706;27;93752;-62
2022/07/27 07:25:16;;;;;;;1.88;0.90;;;;;;;;;;5082635;27;93295;-61
2022/07/27 07:27:43;;;;;;;5.65;1.00;;;;;;;;;;5090592;27;94217;-62
2022/07/27 07:30:09;;;;;;;3.30;0.98;;;;;;;;;;5078817;27;97301;-61
2022/07/27 07:32:36;;;;;;;2.42;0.95;;;;;;;;;;5097912;27;92701;-62
2022/07/27 07:35:03;;;;;;;3.45;1.00;;;;;;;;;;5084019;27;93149;-62
2022/07/27 07:37:31;;;;;;;4.32;0.93;;;;;;;;;;5077827;27;92483;-62
2022/07/27 07:39:59;;;;;;;3.42;1.00;;;;;;;;;;5080991;27;92486;-61
2022/07/27 07:42:48;;;;;;;16.80;1.63;;;;;;;;;;5075379;27;95777;-61
2022/07/27 07:45:15;;;;;;;3.17;1.23;;;;;;;;;;5076648;27;92505;-61
2022/07/27 07:47:41;;;;;;;2.63;0.80;;;;;;;;;;5079508;27;94155;-61
2022/07/27 07:50:08;;;;;;;7.03;1.20;;;;;;;;;;5078141;27;93223;-63
2022/07/27 07:52:34;;;;;;;6.95;1.00;;;;;;;;;;5077303;27;92407;-64
2022/07/27 07:55:01;;;;;;;5.35;0.80;;;;;;;;;;5079126;27;94468;-64
2022/07/27 07:57:27;;;;;;;5.20;1.20;;;;;;;;;;5083155;27;93557;-61
2022/07/27 07:59:53;;;;;;;6.03;1.05;;;;;;;;;;5091138;27;91729;-61
2022/07/27 08:02:20;;;;;;;3.00;0.80;;;;;;;;;;5079855;27;92446;-62
2022/07/27 08:04:47;;;;;;;6.10;1.00;;;;;;;;;;5080877;27;92662;-61
2022/07/27 08:07:13;;;;;;;5.78;0.95;;;;;;;;;;5086939;27;94796;-61
2022/07/27 08:09:39;;;;;;;5.13;1.20;;;;;;;;;;5086868;27;94229;-62
2022/07/27 08:12:06;;;;;;;2.17;0.68;;;;;;;;;;5096994;27;92440;-61
2022/07/27 08:14:32;;;;;;;7.55;1.42;;;;;;;;;;5097305;27;93383;-61
2022/07/27 08:16:59;;;;;;;2.80;1.00;;;;;;;;;;5093080;27;93261;-61
2022/07/27 08:19:25;;;;;;;5.03;0.90;;;;;;;;;;5090654;27;92529;-61
2022/07/27 08:21:51;;;;;;;9.40;1.30;;;;;;;;;;5094671;27;92436;-61
2022/07/27 08:24:17;;;;;;;4.00;1.10;;;;;;;;;;5076300;27;94867;-61
2022/07/27 08:26:44;;;;;;;10.80;1.05;;;;;;;;;;5081225;27;92784;-61
2022/07/27 08:29:10;;;;;;;7.15;1.02;;;;;;;;;;5073900;27;93471;-61
2022/07/27 08:31:39;;;;;;;7.17;1.10;;;;;;;;;;5077496;27;95063;-62
2022/07/27 08:34:18;;;;;;;5.53;1.20;;;;;;;;;;5079701;27;95457;-62
2022/07/27 08:36:44;;;;;;;4.70;1.15;;;;;;;;;;5077540;27;93569;-62
2022/07/27 08:39:11;;;;;;;2.10;1.13;;;;;;;;;;5068791;27;92963;-61
2022/07/27 08:42:00;;;;;;;4.25;1.00;;;;;;;;;;5081006;27;96181;-61
2022/07/27 08:44:29;;;;;;;3.20;0.80;;;;;;;;;;5092360;27;93464;-61
2022/07/27 08:46:59;;;;;;;3.80;0.98;;;;;;;;;;5086822;27;93068;-62
2022/07/27 08:49:26;;;;;;;21.05;1.30;;;;;;;;;;5090144;27;92740;-61
2022/07/27 08:52:09;;;;;;;5.20;0.93;;;;;;;;;;5096789;27;92468;-61
2022/07/27 08:54:39;;;;;;;4.05;1.00;;;;;;;;;;5096964;27;93106;-61
2022/07/27 08:57:05;;;;;;;;;;;;;;;;;;5090407;27;96300;-61
2022/07/27 08:59:31;;;;;;;9.45;1.30;;;;;;;;;;5081045;27;117094;-61
2022/07/27 09:01:59;;;;;;;9.75;1.27;;;;;;;;;;5085725;27;93262;-61
2022/07/27 09:04:29;;;;;;;5.03;0.93;;;;;;;;;;5083146;27;93391;-61
2022/07/27 09:06:55;;;;;;;3.38;0.73;;;;;;;;;;5084740;27;93989;-61
2022/07/27 09:09:22;;;;;;;2.13;0.75;;;;;;;;;;5078791;27;93435;-61
2022/07/27 09:12:14;;;;;;;6.47;1.00;;;;;;;;;;5079657;27;92729;-61
2022/07/27 09:14:41;;;;;;;5.65;0.90;;;;;;;;;;5075077;27;93000;-61
2022/07/27 09:17:23;;;;;;;2.65;0.77;;;;;;;;;;5086717;27;94509;-61
2022/07/27 09:20:11;;;;;;;1.75;0.80;;;;;;;;;;5083989;27;92888;-61
2022/07/27 09:22:49;;;;;;;3.53;0.90;;;;;;;;;;5092579;27;94852;-64
2022/07/27 09:25:16;;;;;;;5.25;0.88;;;;;;;;;;5087372;27;93652;-62
2022/07/27 09:27:44;;;;;;;4.47;1.13;;;;;;;;;;5082585;27;92460;-64
2022/07/27 09:30:12;;;;;;;6.65;1.02;;;;;;;;;;5094342;27;95645;-63
2022/07/27 09:32:49;;;;;;;5.78;1.10;;;;;;;;;;5096135;27;92412;-66
2022/07/27 09:35:18;;;;;;;4.70;0.90;;;;;;;;;;5084993;27;93071;-61
2022/07/27 09:37:44;;;;;;;2.92;0.88;;;;;;;;;;5087844;27;94499;-65
2022/07/27 09:40:20;;;;;;;4.43;1.02;;;;;;;;;;5085506;27;91708;-62
2022/07/27 09:43:06;;;;;;;11.70;1.42;;;;;;;;;;5094649;27;92479;-63
2022/07/27 09:45:52;;;;;;;4.97;1.00;;;;;;;;;;5083766;27;95115;-64
2022/07/27 09:48:20;;;;;;;7.85;1.10;;;;;;;;;;5077115;27;95505;-58
2022/07/27 09:51:06;;;;;;;7.28;1.27;;;;;;;;;;5072060;27;95297;-57
2022/07/27 09:53:54;;;;;;;3.80;0.80;;;;;;;;;;5092889;27;93438;-57
2022/07/27 09:56:30;;;;;;;5.20;1.10;;;;;;;;;;5086467;27;94392;-58
2022/07/27 09:58:57;;;;;;;4.20;1.15;;;;;;;;;;5074708;27;94581;-58
2022/07/27 10:01:32;;;;;;;5.13;0.88;;;;;;;;;;5078290;27;92543;-57
2022/07/27 10:03:59;;;;;;;3.55;0.90;;;;;;;;;;5083623;27;93564;-57
2022/07/27 10:06:26;;;;;;;4.13;1.20;;;;;;;;;;5079556;27;93028;-58
2022/07/27 10:08:53;;;;;;;3.47;0.90;;;;;;;;;;5077853;27;93882;-57
2022/07/27 10:11:20;;;;;;;5.63;1.13;;;;;;;;;;5084505;27;93068;-58
2022/07/27 10:13:47;;;;;;;5.65;1.42;;;;;;;;;;5093871;27;96895;-58
2022/07/27 10:16:15;;;;;;;2.95;1.10;;;;;;;;;;5079185;27;95379;-58
2022/07/27 10:18:48;;;;;;;6.47;1.30;;;;;;;;;;5076976;27;94541;-58
2022/07/27 10:21:22;;;;;;;7.18;1.58;;;;;;;;;;5080611;27;92371;-57
2022/07/27 10:23:59;;;;;;;2.72;0.80;;;;;;;;;;5059736;27;94242;-57
2022/07/27 10:26:25;;;;;;;8.02;1.05;;;;;;;;;;5092526;27;94603;-58
2022/07/27 10:28:53;;;;;;;5.15;0.75;;;;;;;;;;5089361;27;93076;-58
2022/07/27 10:31:21;;;;;;;6.22;1.20;;;;;;;;;;5086573;27;93341;-58
2022/07/27 10:33:51;;;;;;;3.88;1.00;;;;;;;;;;5077780;27;93423;-58
2022/07/27 10:36:23;;;;;;;3.17;0.90;;;;;;;;;;5097401;27;92506;-57
2022/07/27 10:38:50;;;;;;;3.88;0.93;;;;;;;;;;5085667;27;96878;-57
2022/07/27 10:41:24;;;;;;;2.45;1.00;;;;;;;;;;5060646;27;92472;-58
2022/07/27 10:44:10;;;;;;;5.57;1.25;;;;;;;;;;5081696;27;93186;-58
2022/07/27 10:46:41;;;;;;;2.53;1.08;;;;;;;;;;5086257;27;94472;-58
2022/07/27 10:49:23;;;;;;;2.22;0.90;;;;;;;;;;5098528;27;92536;-58
2022/07/27 10:51:52;;;;;;;4.40;1.00;;;;;;;;;;5088161;27;93568;-58
2022/07/27 10:54:21;;;;;;;12.93;1.60;;;;;;;;;;5088152;27;94532;-58
2022/07/27 10:56:48;;;;;;;6.07;1.33;;;;;;;;;;5082220;27;91868;-58
2022/07/27 10:59:35;;;;;;;3.90;1.10;;;;;;;;;;5091485;27;92394;-58
2022/07/27 11:02:36;;;;;;;3.80;1.20;;;;;;;;;;5090861;27;93926;-58
2022/07/27 11:05:03;;;;;;;4.40;1.45;;;;;;;;;;5096123;27;94688;-57
2022/07/27 11:07:29;;;;;;;6.28;1.42;;;;;;;;;;5077510;27;93441;-58
2022/07/27 11:10:11;;;;;;;4.03;1.13;;;;;;;;;;5079995;27;92451;-58
2022/07/27 11:12:38;;;;;;;3.17;0.95;;;;;;;;;;5077562;27;94346;-58
2022/07/27 11:15:05;;;;;;;2.35;1.08;;;;;;;;;;5096155;27;93609;-58
2022/07/27 11:17:31;;;;;;;4.93;1.10;;;;;;;;;;5080900;27;93967;-58
2022/07/27 11:20:21;;;;;;;2.03;1.10;;;;;;;;;;5089623;27;95774;-58
2022/07/27 11:22:47;;;;;;;5.10;1.03;;;;;;;;;;5101579;27;92492;-58
2022/07/27 11:25:33;;;;;;;4.88;1.13;;;;;;;;;;5095452;27;92443;-58
2022/07/27 11:28:05;;;;;;;5.38;1.13;;;;;;;;;;5092004;27;93949;-57
2022/07/27 11:30:32;;;;;;;1.95;0.90;;;;;;;;;;5079196;27;96190;-58
2022/07/27 11:33:02;;;;;;;8.15;1.08;;;;;;;;;;5078639;27;95612;-58
2022/07/27 11:35:28;;;;;;;3.72;0.80;;;;;;;;;;5083316;27;94478;-59
2022/07/27 11:38:01;;;;;;;2.63;0.90;;;;;;;;;;5090744;27;92769;-59
2022/07/27 11:40:40;;;;;;;5.38;1.05;;;;;;;;;;5091917;27;93620;-58
2022/07/27 11:43:44;;;;;;;3.78;0.77;;;;;;;;;;5097818;27;93398;-58
2022/07/27 11:46:12;;;;;;;4.28;1.10;;;;;;;;;;5092145;27;92426;-58
2022/07/27 11:48:45;;;;;;;4.75;1.10;;;;;;;;;;5077633;27;93665;-59
2022/07/27 11:51:32;;;;;;;4.60;1.30;;;;;;;;;;5081353;27;92491;-58
2022/07/27 11:53:59;;;;;;;3.33;0.80;;;;;;;;;;5087264;27;93210;-58
2022/07/27 11:56:27;;;;;;;6.00;1.45;;;;;;;;;;5084800;27;96912;-58
2022/07/27 11:58:57;;;;;;;4.57;0.80;;;;;;;;;;5077283;27;92478;-58
2022/07/27 12:01:26;;;;;;;5.07;1.10;;;;;;;;;;5091191;27;92974;-58
2022/07/27 12:04:06;;;;;;;3.63;1.20;;;;;;;;;;5075582;27;93497;-58
2022/07/27 12:06:34;;;;;;;4.25;0.90;;;;;;;;;;5080119;27;94356;-59
2022/07/27 12:09:01;;;;;;;6.05;1.13;;;;;;;;;;5085090;27;93314;-58
2022/07/27 12:11:28;;;;;;;5.10;0.70;;;;;;;;;;5077645;27;92633;-58
2022/07/27 12:13:59;;;;;;;6.13;0.98;;;;;;;;;;5085210;27;93114;-58
2022/07/27 12:16:25;;;;;;;4.70;1.05;;;;;;;;;;5082314;27;94312;-59
2022/07/27 12:18:52;;;;;;;3.75;0.85;;;;;;;;;;5096887;27;92478;-59
2022/07/27 12:21:18;;;;;;;1.90;0.65;;;;;;;;;;5088337;27;94813;-58
2022/07/27 12:23:51;;;;;;;2.47;0.80;;;;;;;;;;5091836;27;93633;-58
2022/07/27 12:26:21;;;;;;;6.43;1.00;;;;;;;;;;5076890;27;92396;-58
2022/07/27 12:29:03;;;;;;;9.32;0.60;;;;;;;;;;5079037;27;92944;-58
2022/07/27 12:31:30;;;;;;;3.83;0.80;;;;;;;;;;5089000;27;94301;-61
2022/07/27 12:33:57;;;;;;;3.72;1.23;;;;;;;;;;5094121;27;93187;-58
2022/07/27 12:36:31;;;;;;;5.38;0.85;;;;;;;;;;5081598;27;94898;-63
2022/07/27 12:38:58;;;;;;;5.00;0.70;;;;;;;;;;5077203;27;91759;-62
2022/07/27 12:41:26;;;;;;;3.72;1.10;;;;;;;;;;5075762;27;92642;-62
2022/07/27 12:44:08;;;;;;;1.70;0.73;;;;;;;;;;5075288;27;94754;-62
2022/07/27 12:46:53;;;;;;;5.28;0.95;;;;;;;;;;5090833;27;94955;-62
2022/07/27 12:49:33;;;;;;;5.70;0.88;;;;;;;;;;5092350;27;96755;-62
2022/07/27 12:52:09;;;;;;;5.15;0.90;;;;;;;;;;5092485;27;93766;-62
2022/07/27 12:54:36;;;;;;;3.55;0.70;;;;;;;;;;5095146;27;93278;-62
2022/07/27 12:57:02;;;;;;;6.80;0.70;;;;;;;;;;5095587;27;93728;-61
2022/07/27 12:59:29;;;;;;;1.73;0.50;;;;;;;;;;5085264;27;92475;-60
2022/07/27 13:01:56;;;;;;;3.17;1.05;;;;;;;;;;5089905;27;93656;-59
2022/07/27 13:04:22;;;;;;;4.70;0.70;;;;;;;;;;5080249;27;93286;-59
2022/07/27 13:06:48;;;;;;;2.75;0.73;;;;;;;;;;5076915;27;92861;-59
2022/07/27 13:09:15;;;;;;;4.45;1.33;;;;;;;;;;5086703;27;94284;-58
2022/07/27 13:11:42;;;;;;;0.93;0.68;;;;;;;;;;5073842;27;95774;-59
2022/07/27 13:14:13;;;;;;;2.25;0.75;;;;;;;;;;5079360;27;92779;-59
2022/07/27 13:16:39;;;;;;;1.30;0.80;;;;;;;;;;5089601;27;94253;-58
2022/07/27 13:19:06;;;;;;;5.03;0.95;;;;;;;;;;5081375;27;92561;-59
2022/07/27 13:21:32;;;;;;;1.83;0.63;;;;;;;;;;5074653;27;93670;-60
2022/07/27 13:23:58;;;;;;;1.08;0.47;;;;;;;;;;5082437;27;93425;-59
2022/07/27 13:26:25;;;;;;;1.83;0.70;;;;;;;;;;5089826;27;92469;-60
2022/07/27 13:28:53;;;;;;;2.55;0.75;;;;;;;;;;5087784;27;94179;-59
2022/07/27 13:31:19;;;;;;;3.85;0.60;;;;;;;;;;5081059;27;92749;-59
2022/07/27 13:33:46;;;;;;;4.18;0.80;;;;;;;;;;5080784;27;92616;-59
2022/07/27 13:36:12;;;;;;;1.92;0.90;;;;;;;;;;5087665;27;95671;-61
2022/07/27 13:38:38;;;;;;;1.40;0.50;;;;;;;;;;5080566;27;92641;-60
2022/07/27 13:41:05;;;;;;;1.98;0.70;;;;;;;;;;5077112;27;93081;-60
2022/07/27 13:43:31;;;;;;;2.70;0.77;;;;;;;;;;5081509;27;94631;-59
2022/07/27 13:45:57;;;;;;;6.38;0.70;;;;;;;;;;5085026;27;92503;-59
2022/07/27 13:48:24;;;;;;;8.13;0.80;;;;;;;;;;5075682;27;94274;-59
2022/07/27 13:50:50;;;;;;;1.50;0.77;;;;;;;;;;5075880;27;94617;-59
2022/07/27 13:53:17;;;;;;;0.82;0.50;;;;;;;;;;5090085;27;91715;-59
2022/07/27 13:55:44;;;;;;;2.58;0.90;;;;;;;;;;5073654;27;92726;-59
2022/07/27 13:58:10;;;;;;;8.05;0.70;;;;;;;;;;5077058;27;94443;-59
2022/07/27 14:00:37;;;;;;;1.95;0.60;;;;;;;;;;5084603;27;95005;-58
2022/07/27 14:03:03;;;;;;;0.50;0.50;;;;;;;;;;5079749;27;94507;-59
2022/07/27 14:05:30;;;;;;;2.92;0.80;;;;;;;;;;5076085;27;92458;-59
2022/07/27 14:07:57;;;;;;;1.30;0.65;;;;;;;;;;5095375;27;93235;-59
2022/07/27 14:10:30;;;;;;;8.82;0.93;;;;;;;;;;5088099;27;93603;-59
2022/07/27 14:12:59;;;;;;;1.52;0.60;;;;;;;;;;5074516;27;92434;-59
2022/07/27 14:15:32;;;;;;;4.70;0.70;;;;;;;;;;5076370;27;93938;-59
2022/07/27 14:18:15;;;;;;;2.22;0.50;;;;;;;;;;5075718;27;93735;-59
2022/07/27 14:20:41;;;;;;;1.73;0.40;;;;;;;;;;5085854;27;92526;-59
2022/07/27 14:23:08;;;;;;;2.72;0.57;;;;;;;;;;5095275;27;94425;-59
2022/07/27 14:25:34;;;;;;;5.28;0.70;;;;;;;;;;5080765;27;95010;-59
2022/07/27 14:28:00;;;;;;;3.72;0.82;;;;;;;;;;5095235;27;95557;-59
2022/07/27 14:30:27;;;;;;;2.88;0.82;;;;;;;;;;5075293;27;93623;-59
2022/07/27 14:32:54;;;;;;;3.08;0.80;;;;;;;;;;5074370;27;92355;-59
2022/07/27 14:35:20;;;;;;;2.83;0.68;;;;;;;;;;5080582;27;94097;-59
2022/07/27 14:37:47;;;;;;;2.60;0.70;;;;;;;;;;5080938;27;93734;-59
2022/07/27 14:40:14;;;;;;;0.65;0.50;;;;;;;;;;5090005;27;92497;-59
2022/07/27 14:42:40;;;;;;;3.08;0.55;;;;;;;;;;5095238;27;91726;-59
2022/07/27 14:45:07;;;;;;;0.85;0.40;;;;;;;;;;5075462;27;92306;-59
2022/07/27 14:47:33;;;;;;;1.48;0.63;;;;;;;;;;5074847;27;94410;-59
2022/07/27 14:49:59;;;;;;;1.65;0.80;;;;;;;;;;5082133;27;96933;-59
2022/07/27 14:52:26;;;;;;;1.40;0.60;;;;;;;;;;5075385;27;92540;-59
2022/07/27 14:54:58;;;;;;;1.95;0.68;;;;;;;;;;5090245;27;94203;-60
2022/07/27 14:57:24;;;;;;;4.55;1.08;;;;;;;;;;5084695;27;93364;-60
2022/07/27 14:59:50;;;;;;;3.67;0.45;;;;;;;;;;5073377;27;94574;-60